Time;durP1;ratioP1;P1;durP2;ratioP2;P2;SDS_P1;SDS_P2;PMS_P1;PMS_P2;Temp;Humidity;BMP_temperature;BMP_pressure;BME280_temperature;BME280_humidity;BME280_pressure;Samples;Min_cycle;Max_cycle;Signal;HPM_P1;HPM_P2
2022/03/26 00:02:22;;;;;;;103.32;41.22;;;5.60;99.90;;;;;;5119348;27;20135;-84
2022/03/26 00:04:47;;;;;;;116.53;43.42;;;5.70;99.90;;;;;;5119422;27;20401;-84
2022/03/26 00:07:13;;;;;;;118.47;46.42;;;6.10;99.90;;;;;;5119720;27;20103;-85
2022/03/26 00:09:38;;;;;;;119.78;45.40;;;6.00;99.90;;;;;;5119245;27;20047;-84
2022/03/26 00:12:06;;;;;;;127.30;48.30;;;5.50;99.90;;;;;;5119621;27;20062;-85
2022/03/26 00:14:32;;;;;;;130.60;47.58;;;6.00;99.90;;;;;;5138218;27;20043;-84
2022/03/26 00:16:58;;;;;;;128.82;46.53;;;6.90;99.90;;;;;;5137710;27;20039;-84
2022/03/26 00:19:24;;;;;;;117.55;44.63;;;5.70;99.90;;;;;;5119366;27;20035;-84
2022/03/26 00:21:49;;;;;;;115.60;44.63;;;5.80;99.90;;;;;;5119022;27;20085;-85
2022/03/26 00:24:15;;;;;;;113.13;45.65;;;5.40;99.90;;;;;;5102000;27;20139;-84
2022/03/26 00:26:40;;;;;;;128.68;48.78;;;5.50;99.90;;;;;;5136502;27;20451;-84
2022/03/26 00:29:08;;;;;;;129.27;47.65;;;6.10;99.90;;;;;;5118895;27;20061;-84
2022/03/26 00:31:34;;;;;;;127.90;48.33;;;7.40;99.90;;;;;;5120188;27;20043;-84
2022/03/26 00:34:00;;;;;;;116.82;45.97;;;5.80;99.90;;;;;;5120976;27;20043;-85
2022/03/26 00:36:26;;;;;;;119.88;45.88;;;5.50;99.90;;;;;;5136380;27;20097;-85
2022/03/26 00:38:52;;;;;;;129.15;46.92;;;5.30;99.90;;;;;;5135824;27;20071;-84
2022/03/26 00:41:18;;;;;;;137.80;50.65;;;5.30;99.90;;;;;;5119178;27;20061;-84
2022/03/26 00:43:45;;;;;;;133.32;49.20;;;5.60;99.90;;;;;;5137678;27;20066;-84
2022/03/26 00:46:11;;;;;;;140.80;50.67;;;7.30;99.90;;;;;;5137148;27;20131;-84
2022/03/26 00:48:37;;;;;;;151.73;52.55;;;5.40;99.90;;;;;;5135887;27;20092;-84
2022/03/26 00:51:02;;;;;;;143.02;51.33;;;5.60;99.90;;;;;;5136066;27;20039;-85
2022/03/26 00:53:28;;;;;;;149.90;52.50;;;6.90;99.90;;;;;;5137128;27;20435;-84
2022/03/26 00:55:54;;;;;;;162.38;55.35;;;5.60;99.90;;;;;;5135441;27;20047;-85
2022/03/26 00:58:20;;;;;;;151.48;55.10;;;6.20;99.90;;;;;;5101642;27;20047;-84
2022/03/26 01:00:46;;;;;;;157.95;55.17;;;5.20;99.90;;;;;;5135539;27;20088;-84
2022/03/26 01:03:12;;;;;;;148.57;53.47;;;5.20;99.90;;;;;;5135890;27;20438;-84
2022/03/26 01:05:38;;;;;;;156.85;55.20;;;5.50;99.90;;;;;;5135501;27;20035;-84
2022/03/26 01:08:04;;;;;;;172.38;58.67;;;5.40;99.90;;;;;;5118249;27;20055;-85
2022/03/26 01:10:30;;;;;;;161.82;55.88;;;5.60;99.90;;;;;;5118128;27;20500;-84
2022/03/26 01:12:56;;;;;;;163.07;56.95;;;5.60;99.90;;;;;;5117946;27;20036;-85
2022/03/26 01:15:22;;;;;;;166.40;58.33;;;5.40;99.90;;;;;;5135365;27;20035;-84
2022/03/26 01:17:48;;;;;;;167.27;58.15;;;5.30;99.90;;;;;;5117894;27;20043;-84
2022/03/26 01:20:13;;;;;;;158.38;55.70;;;7.60;99.90;;;;;;5135250;27;20176;-85
2022/03/26 01:22:39;;;;;;;161.45;56.47;;;6.40;99.90;;;;;;5101208;27;20412;-85
2022/03/26 01:25:05;;;;;;;160.07;54.92;;;5.80;99.90;;;;;;5117727;27;20046;-84
2022/03/26 01:27:32;;;;;;;157.43;55.03;;;5.80;99.90;;;;;;5117683;27;20047;-84
2022/03/26 01:29:57;;;;;;;156.77;56.38;;;5.60;99.90;;;;;;5117823;27;20438;-85
2022/03/26 01:32:23;;;;;;;156.27;54.58;;;6.40;99.90;;;;;;5117641;27;20057;-84
2022/03/26 01:34:49;;;;;;;154.90;54.95;;;6.10;99.90;;;;;;5134892;27;20039;-84
2022/03/26 01:37:16;;;;;;;159.15;54.05;;;6.90;99.90;;;;;;5117572;27;20043;-84
2022/03/26 01:39:42;;;;;;;151.07;52.75;;;5.00;99.90;;;;;;5117611;27;20057;-85
2022/03/26 01:42:09;;;;;;;156.80;55.38;;;5.20;99.90;;;;;;5117321;27;20039;-84
2022/03/26 01:44:36;;;;;;;146.80;53.60;;;5.40;99.90;;;;;;5134613;27;20078;-84
2022/03/26 01:47:03;;;;;;;160.13;55.47;;;5.00;99.90;;;;;;5134458;27;20079;-84
2022/03/26 01:49:29;;;;;;;163.02;54.50;;;5.50;99.90;;;;;;5117911;27;20097;-84
2022/03/26 01:51:55;;;;;;;144.15;51.47;;;5.10;99.90;;;;;;5117986;27;20035;-85
2022/03/26 01:54:22;;;;;;;159.85;55.40;;;4.80;99.90;;;;;;5100725;27;20396;-84
2022/03/26 01:56:48;;;;;;;156.43;55.33;;;5.20;99.90;;;;;;5136016;27;20047;-84
2022/03/26 01:59:14;;;;;;;160.02;55.60;;;5.00;99.90;;;;;;5117725;27;20492;-84
2022/03/26 02:01:40;;;;;;;158.40;55.78;;;5.00;99.90;;;;;;5134534;27;20039;-84
2022/03/26 02:04:08;;;;;;;167.40;55.13;;;5.10;99.90;;;;;;5128423;27;20039;-85
2022/03/26 02:06:36;;;;;;;156.20;55.00;;;5.10;99.90;;;;;;5138089;27;20519;-84
2022/03/26 02:09:10;;;;;;;159.13;56.28;;;5.00;99.90;;;;;;5138115;27;20154;-85
2022/03/26 02:11:38;;;;;;;155.75;55.38;;;5.00;99.90;;;;;;5139076;27;20043;-84
2022/03/26 02:14:04;;;;;;;166.45;54.92;;;4.50;99.90;;;;;;5122145;27;20130;-84
2022/03/26 02:16:32;;;;;;;162.23;55.38;;;5.40;99.90;;;;;;5102186;27;20042;-84
2022/03/26 02:18:58;;;;;;;167.82;56.97;;;4.50;99.90;;;;;;5118239;27;20415;-84
2022/03/26 02:21:24;;;;;;;153.00;55.90;;;5.00;99.90;;;;;;5101838;27;20082;-84
2022/03/26 02:23:51;;;;;;;167.00;58.08;;;4.80;99.90;;;;;;5117776;27;20039;-84
2022/03/26 02:26:25;;;;;;;160.98;54.85;;;4.70;99.90;;;;;;5117931;27;20363;-84
2022/03/26 02:28:52;;;;;;;168.15;55.83;;;5.00;99.90;;;;;;5117675;27;20058;-84
2022/03/26 02:31:18;;;;;;;156.13;55.60;;;4.90;99.90;;;;;;5136391;27;20122;-84
2022/03/26 02:33:44;;;;;;;160.75;56.28;;;7.20;99.90;;;;;;5135308;27;20059;-84
2022/03/26 02:36:09;;;;;;;159.32;55.33;;;4.50;99.90;;;;;;5117491;27;20069;-84
2022/03/26 02:38:36;;;;;;;163.07;54.60;;;5.00;99.90;;;;;;5134752;27;20043;-84
2022/03/26 02:41:02;;;;;;;163.82;54.95;;;4.50;99.90;;;;;;5117242;27;20043;-84
2022/03/26 02:43:28;;;;;;;173.93;59.75;;;4.50;99.90;;;;;;5099830;27;20046;-84
2022/03/26 02:45:54;;;;;;;167.73;56.35;;;4.60;99.90;;;;;;5099681;27;20404;-84
2022/03/26 02:48:20;;;;;;;164.60;57.03;;;4.40;99.90;;;;;;5133626;27;20043;-84
2022/03/26 02:50:46;;;;;;;165.13;55.53;;;4.70;99.90;;;;;;5133911;27;20122;-84
2022/03/26 02:53:12;;;;;;;167.10;58.17;;;4.20;99.90;;;;;;5117141;27;20366;-84
2022/03/26 02:55:39;;;;;;;165.30;55.92;;;4.70;99.90;;;;;;5135057;27;20082;-84
2022/03/26 02:58:07;;;;;;;172.23;58.42;;;4.70;99.90;;;;;;5115832;28;20095;-84
2022/03/26 03:00:34;;;;;;;161.18;56.65;;;5.30;99.90;;;;;;5099504;27;20050;-84
2022/03/26 03:02:59;;;;;;;163.68;54.53;;;4.40;99.90;;;;;;5099778;28;20065;-84
2022/03/26 03:05:25;;;;;;;138.52;50.75;;;4.60;99.90;;;;;;5133779;28;20477;-84
2022/03/26 03:07:51;;;;;;;117.68;42.90;;;5.70;99.90;;;;;;5134902;28;20035;-84
2022/03/26 03:10:17;;;;;;;106.18;40.75;;;4.60;99.90;;;;;;5115853;28;20039;-84
2022/03/26 03:12:44;;;;;;;91.35;33.97;;;4.40;99.90;;;;;;5116143;28;20054;-84
2022/03/26 03:15:14;;;;;;;91.15;33.58;;;4.30;99.90;;;;;;5115998;28;20047;-84
2022/03/26 03:17:42;;;;;;;84.60;33.28;;;4.30;99.90;;;;;;5134788;28;20055;-84
2022/03/26 03:20:09;;;;;;;85.63;32.55;;;4.10;99.90;;;;;;5115942;28;20035;-84
2022/03/26 03:22:38;;;;;;;85.97;34.08;;;4.80;99.90;;;;;;5116176;28;20047;-84
2022/03/26 03:25:05;;;;;;;87.85;33.65;;;4.20;99.90;;;;;;5116407;28;20050;-85
2022/03/26 03:27:32;;;;;;;91.07;34.72;;;4.70;99.90;;;;;;5116362;28;20498;-84
2022/03/26 03:29:58;;;;;;;106.25;38.75;;;4.00;99.90;;;;;;5115693;28;20083;-84
2022/03/26 03:32:24;;;;;;;108.22;41.30;;;4.20;99.90;;;;;;5116009;28;20500;-84
2022/03/26 03:34:50;;;;;;;115.03;40.63;;;4.90;99.90;;;;;;5134502;28;20035;-84
2022/03/26 03:37:16;;;;;;;125.07;43.03;;;3.50;99.90;;;;;;5134314;28;20086;-84
2022/03/26 03:39:42;;;;;;;122.18;43.08;;;6.20;99.90;;;;;;5115781;28;20075;-84
2022/03/26 03:42:09;;;;;;;118.45;42.25;;;4.10;99.90;;;;;;5132954;28;20088;-84
2022/03/26 03:44:35;;;;;;;122.07;44.03;;;4.40;99.90;;;;;;5115929;28;20430;-84
2022/03/26 03:47:02;;;;;;;120.10;42.03;;;4.60;99.90;;;;;;5115941;28;20043;-84
2022/03/26 03:49:31;;;;;;;115.85;41.65;;;3.90;99.90;;;;;;5116113;28;20035;-84
2022/03/26 03:51:57;;;;;;;123.32;43.30;;;5.30;99.90;;;;;;5115658;28;20103;-84
2022/03/26 03:54:23;;;;;;;129.68;45.72;;;4.10;99.90;;;;;;5115457;28;20079;-84
2022/03/26 03:56:49;;;;;;;135.32;47.42;;;3.90;99.90;;;;;;5115629;28;20090;-84
2022/03/26 03:59:14;;;;;;;137.43;47.35;;;5.90;99.90;;;;;;5132833;28;20073;-84
2022/03/26 04:01:40;;;;;;;140.35;48.70;;;4.10;99.90;;;;;;5115586;28;20064;-85
2022/03/26 04:04:06;;;;;;;128.35;47.10;;;3.60;99.90;;;;;;5132931;28;20089;-85
2022/03/26 04:06:31;;;;;;;131.88;46.55;;;4.10;99.90;;;;;;5132903;28;20043;-84
2022/03/26 04:08:57;;;;;;;134.18;48.08;;;3.40;99.90;;;;;;5115783;27;20043;-85
2022/03/26 04:11:23;;;;;;;151.23;50.40;;;4.00;99.90;;;;;;5136526;27;20047;-84
2022/03/26 04:13:52;;;;;;;149.20;50.33;;;4.00;99.90;;;;;;5136777;27;20039;-84
2022/03/26 04:16:19;;;;;;;169.10;54.53;;;4.00;99.90;;;;;;5118910;27;20059;-84
2022/03/26 04:18:45;;;;;;;163.23;52.13;;;5.10;99.90;;;;;;5137781;27;20195;-84
2022/03/26 04:21:10;;;;;;;159.27;52.55;;;3.90;99.90;;;;;;5136180;27;20489;-84
2022/03/26 04:23:36;;;;;;;168.57;52.90;;;3.00;99.90;;;;;;5136211;27;20470;-84
2022/03/26 04:26:02;;;;;;;161.48;53.35;;;3.90;99.90;;;;;;5119086;27;20057;-84
2022/03/26 04:28:28;;;;;;;166.43;55.28;;;3.90;99.90;;;;;;5118681;27;20039;-84
2022/03/26 04:30:54;;;;;;;161.00;54.00;;;3.80;99.90;;;;;;5119025;27;20051;-84
2022/03/26 04:33:19;;;;;;;167.10;55.15;;;3.90;99.90;;;;;;5119196;27;20041;-84
2022/03/26 04:35:45;;;;;;;164.30;53.35;;;3.80;99.90;;;;;;5118897;27;20039;-84
2022/03/26 04:38:10;;;;;;;169.05;55.80;;;3.80;99.90;;;;;;5118879;27;20100;-84
2022/03/26 04:40:36;;;;;;;164.88;54.95;;;3.80;99.90;;;;;;5118627;27;20097;-84
2022/03/26 04:43:02;;;;;;;169.05;55.47;;;3.80;99.90;;;;;;5118828;27;20077;-84
2022/03/26 04:45:30;;;;;;;157.65;52.25;;;3.90;99.90;;;;;;5118622;27;20043;-84
2022/03/26 04:47:55;;;;;;;155.82;52.75;;;4.40;99.90;;;;;;5118776;27;20047;-85
2022/03/26 04:50:21;;;;;;;178.63;56.95;;;3.80;99.90;;;;;;5136083;27;20096;-84
2022/03/26 04:52:48;;;;;;;176.23;59.00;;;3.80;99.90;;;;;;5118701;27;20039;-84
2022/03/26 04:55:14;;;;;;;174.27;57.55;;;3.80;99.90;;;;;;5118277;27;20054;-84
2022/03/26 04:57:42;;;;;;;174.50;55.92;;;3.70;99.90;;;;;;5101185;27;20043;-84
2022/03/26 05:00:11;;;;;;;174.70;56.92;;;3.80;99.90;;;;;;5101358;27;20043;-84
2022/03/26 05:02:38;;;;;;;168.15;56.78;;;3.80;99.90;;;;;;5101236;27;20524;-84
2022/03/26 05:05:08;;;;;;;169.80;54.65;;;3.80;99.90;;;;;;5118538;27;20577;-84
2022/03/26 05:07:47;;;;;;;163.10;52.53;;;3.80;99.90;;;;;;5136773;27;20412;-85
2022/03/26 05:10:16;;;;;;;163.77;54.75;;;3.70;99.90;;;;;;5118904;27;20054;-85
2022/03/26 05:12:43;;;;;;;165.73;52.17;;;3.70;99.90;;;;;;5118336;27;20415;-84
2022/03/26 05:15:09;;;;;;;152.02;51.75;;;3.70;99.90;;;;;;5118050;27;20148;-84
2022/03/26 05:17:36;;;;;;;171.77;55.35;;;3.70;99.90;;;;;;5118066;27;20043;-84
2022/03/26 05:20:02;;;;;;;176.57;55.72;;;3.60;99.90;;;;;;5136538;27;20546;-84
2022/03/26 05:22:28;;;;;;;181.45;58.40;;;3.50;99.90;;;;;;5117453;27;20404;-84
2022/03/26 05:24:54;;;;;;;181.25;59.60;;;3.50;99.90;;;;;;5118049;27;20035;-84
2022/03/26 05:27:20;;;;;;;173.50;57.88;;;3.50;99.90;;;;;;5135022;27;20046;-84
2022/03/26 05:29:46;;;;;;;172.60;56.08;;;3.50;99.90;;;;;;5117569;27;20413;-84
2022/03/26 05:32:13;;;;;;;172.00;56.30;;;3.50;99.90;;;;;;5100734;27;20039;-84
2022/03/26 05:34:39;;;;;;;185.55;58.50;;;3.50;99.90;;;;;;5135284;27;20500;-85
2022/03/26 05:37:05;;;;;;;181.00;57.78;;;3.50;99.90;;;;;;5117306;27;20512;-84
2022/03/26 05:39:31;;;;;;;193.07;60.08;;;3.50;99.90;;;;;;5117719;27;20038;-84
2022/03/26 05:41:57;;;;;;;194.80;60.55;;;3.60;99.90;;;;;;5100574;27;20078;-84
2022/03/26 05:44:23;;;;;;;195.98;60.25;;;3.60;99.90;;;;;;5117591;27;20085;-84
2022/03/26 05:46:48;;;;;;;180.32;57.30;;;3.60;99.90;;;;;;5117665;27;20047;-84
2022/03/26 05:49:14;;;;;;;185.50;57.78;;;3.60;99.90;;;;;;5100740;27;20050;-84
2022/03/26 05:51:40;;;;;;;175.57;57.33;;;3.50;99.90;;;;;;5117337;27;20084;-84
2022/03/26 05:54:05;;;;;;;189.02;60.15;;;3.60;99.90;;;;;;5100322;27;20046;-84
2022/03/26 05:56:36;;;;;;;191.07;62.35;;;3.60;99.90;;;;;;5117120;27;20469;-84
2022/03/26 05:59:05;;;;;;;176.77;55.97;;;3.60;99.90;;;;;;5117327;27;20043;-84
2022/03/26 06:01:32;;;;;;;197.93;63.17;;;3.60;99.90;;;;;;5134577;27;20058;-85
2022/03/26 06:03:58;;;;;;;211.32;65.10;;;3.60;99.90;;;;;;5117095;27;20168;-84
2022/03/26 06:06:23;;;;;;;214.95;66.80;;;3.80;99.90;;;;;;5100326;27;20082;-84
2022/03/26 06:08:49;;;;;;;225.45;67.65;;;3.70;99.90;;;;;;5116856;27;20050;-84
2022/03/26 06:11:15;;;;;;;223.98;66.38;;;3.80;99.90;;;;;;5099963;27;20043;-84
2022/03/26 06:13:40;;;;;;;244.05;71.93;;;5.60;99.90;;;;;;5117300;27;20043;-84
2022/03/26 06:16:06;;;;;;;217.23;66.07;;;4.00;99.90;;;;;;5116925;27;20132;-84
2022/03/26 06:18:32;;;;;;;213.57;66.43;;;4.10;99.90;;;;;;5134196;27;20039;-85
2022/03/26 06:20:57;;;;;;;212.50;65.18;;;4.10;99.90;;;;;;5117186;27;20099;-85
2022/03/26 06:23:23;;;;;;;211.63;68.80;;;4.20;99.90;;;;;;5134293;27;20470;-84
2022/03/26 06:25:49;;;;;;;223.50;68.28;;;3.90;99.90;;;;;;5116541;27;20039;-85
2022/03/26 06:28:19;;;;;;;226.85;70.40;;;4.40;99.90;;;;;;5116905;27;20039;-85
2022/03/26 06:30:46;;;;;;;219.00;68.90;;;5.00;99.90;;;;;;5116427;27;20051;-84
2022/03/26 06:33:13;;;;;;;228.40;68.57;;;4.00;99.90;;;;;;5098920;27;20039;-84
2022/03/26 06:35:39;;;;;;;232.55;69.05;;;4.60;99.90;;;;;;5116840;27;20066;-84
2022/03/26 06:38:04;;;;;;;223.85;72.43;;;4.70;99.90;;;;;;5116875;27;20473;-84
2022/03/26 06:40:30;;;;;;;215.95;68.88;;;4.80;99.90;;;;;;5133758;27;20035;-85
2022/03/26 06:42:56;;;;;;;232.07;71.65;;;4.90;99.90;;;;;;5116504;27;20042;-85
2022/03/26 06:45:22;;;;;;;235.02;70.88;;;5.00;99.90;;;;;;5135163;27;20578;-84
2022/03/26 06:47:48;;;;;;;239.65;72.75;;;5.00;99.90;;;;;;5135038;27;20126;-84
2022/03/26 06:50:13;;;;;;;220.77;70.72;;;5.20;99.90;;;;;;5116705;27;20488;-85
2022/03/26 06:52:39;;;;;;;226.40;69.90;;;5.30;99.90;;;;;;5099467;27;20103;-84
2022/03/26 06:55:05;;;;;;;210.15;67.45;;;5.50;99.90;;;;;;5133470;27;20043;-84
2022/03/26 06:57:31;;;;;;;210.40;67.55;;;5.60;99.90;;;;;;5133479;27;20113;-84
2022/03/26 06:59:57;;;;;;;196.85;65.80;;;5.70;99.90;;;;;;5116497;27;20047;-84
2022/03/26 07:02:22;;;;;;;189.55;63.75;;;6.20;99.90;;;;;;5133928;27;20118;-84
2022/03/26 07:04:48;;;;;;;198.52;63.92;;;7.30;99.90;;;;;;5116539;28;20035;-84
2022/03/26 07:07:14;;;;;;;185.65;62.55;;;6.10;99.90;;;;;;5134010;28;20031;-85
2022/03/26 07:09:40;;;;;;;185.18;62.80;;;6.30;99.90;;;;;;5116664;28;20437;-84
2022/03/26 07:12:06;;;;;;;172.68;61.38;;;6.40;99.90;;;;;;5116534;28;20047;-84
2022/03/26 07:14:31;;;;;;;179.43;60.33;;;6.60;99.90;;;;;;5116287;28;20043;-84
2022/03/26 07:16:57;;;;;;;177.60;59.95;;;6.70;99.90;;;;;;5099430;28;20046;-84
2022/03/26 07:19:23;;;;;;;171.35;57.95;;;6.70;99.90;;;;;;5116332;28;20195;-84
2022/03/26 07:21:48;;;;;;;167.57;58.80;;;8.10;99.90;;;;;;5116227;28;20214;-84
2022/03/26 07:24:14;;;;;;;157.70;58.53;;;8.20;99.90;;;;;;5134743;28;20039;-84
2022/03/26 07:26:39;;;;;;;160.80;56.55;;;7.90;99.90;;;;;;5115932;28;20039;-84
2022/03/26 07:29:05;;;;;;;141.43;51.47;;;8.40;99.90;;;;;;5135023;28;20044;-84
2022/03/26 07:31:31;;;;;;;144.90;52.22;;;6.90;99.90;;;;;;5133385;28;20051;-85
2022/03/26 07:33:57;;;;;;;137.55;49.53;;;7.40;99.90;;;;;;5116208;28;20186;-85
2022/03/26 07:36:22;;;;;;;133.80;47.92;;;9.30;99.90;;;;;;5099346;28;20051;-85
2022/03/26 07:38:48;;;;;;;111.18;41.03;;;7.30;99.90;;;;;;5116239;28;20646;-86
2022/03/26 07:41:13;;;;;;;112.32;42.45;;;7.30;99.90;;;;;;5116312;28;20069;-85
2022/03/26 07:43:39;;;;;;;93.88;37.60;;;7.90;99.90;;;;;;5115949;27;20053;-85
2022/03/26 07:46:05;;;;;;;97.90;37.47;;;7.60;99.90;;;;;;5103082;27;20409;-85
2022/03/26 07:48:31;;;;;;;75.25;34.17;;;10.10;99.90;;;;;;5120343;27;20126;-85
2022/03/26 07:50:56;;;;;;;68.88;30.30;;;8.80;99.90;;;;;;5138711;27;20122;-86
2022/03/26 07:53:22;;;;;;;72.70;30.58;;;10.10;99.90;;;;;;5137089;27;20497;-85
2022/03/26 07:55:48;;;;;;;69.75;29.70;;;10.30;99.90;;;;;;5102893;27;20046;-86
2022/03/26 07:58:14;;;;;;;67.38;29.20;;;8.70;99.90;;;;;;5103980;27;20043;-85
2022/03/26 08:00:40;;;;;;;70.15;29.75;;;9.50;99.90;;;;;;5122086;27;20042;-86
2022/03/26 08:03:05;;;;;;;69.57;30.08;;;10.60;99.90;;;;;;5122020;27;20450;-87
2022/03/26 08:05:31;;;;;;;71.00;30.83;;;10.30;99.90;;;;;;5107291;27;20043;-86
2022/03/26 08:07:57;;;;;;;76.82;31.92;;;11.40;99.90;;;;;;5122084;27;20130;-86
2022/03/26 08:10:22;;;;;;;76.53;31.80;;;11.10;99.90;;;;;;5123211;27;20047;-87
2022/03/26 08:12:48;;;;;;;81.57;34.10;;;10.00;99.90;;;;;;5122523;27;20532;-86
2022/03/26 08:15:13;;;;;;;79.45;33.47;;;11.50;99.90;;;;;;5123359;27;20043;-86
2022/03/26 08:17:39;;;;;;;71.90;30.40;;;12.20;99.90;;;;;;5124503;27;20115;-86
2022/03/26 08:20:07;;;;;;;68.13;29.75;;;10.00;99.90;;;;;;5141744;27;20058;-86
2022/03/26 08:22:34;;;;;;;68.28;30.70;;;10.40;99.90;;;;;;5143608;27;20038;-86
2022/03/26 08:25:00;;;;;;;74.72;31.58;;;9.60;99.90;;;;;;5143577;27;20078;-86
2022/03/26 08:27:26;;;;;;;75.07;31.05;;;12.30;99.90;;;;;;5137690;27;20126;-83
2022/03/26 08:29:52;;;;;;;73.10;31.15;;;12.50;99.90;;;;;;5128607;27;20078;-86
2022/03/26 08:32:19;;;;;;;78.30;31.70;;;10.60;99.90;;;;;;5122075;27;20126;-84
2022/03/26 08:34:44;;;;;;;73.63;30.30;;;11.50;99.90;;;;;;5138229;27;20043;-84
2022/03/26 08:37:11;;;;;;;65.97;29.13;;;11.60;99.90;;;;;;5120835;27;20397;-85
2022/03/26 08:39:36;;;;;;;71.15;29.17;;;11.80;99.90;;;;;;5137399;27;20046;-86
2022/03/26 08:42:03;;;;;;;64.38;27.42;;;11.10;99.90;;;;;;5119833;27;20043;-86
2022/03/26 08:44:28;;;;;;;65.30;26.77;;;11.40;99.90;;;;;;5121042;27;20051;-86
2022/03/26 08:46:54;;;;;;;63.55;28.38;;;12.80;99.90;;;;;;5119572;27;20477;-85
2022/03/26 08:49:20;;;;;;;62.70;26.98;;;12.40;99.90;;;;;;5120420;27;20097;-85
2022/03/26 08:51:45;;;;;;;63.17;27.48;;;12.40;99.90;;;;;;5120039;27;20107;-85
2022/03/26 08:54:11;;;;;;;58.67;26.75;;;12.60;99.90;;;;;;5118892;27;20073;-83
2022/03/26 08:56:37;;;;;;;58.33;26.20;;;12.70;99.90;;;;;;5118310;27;20054;-84
2022/03/26 08:59:03;;;;;;;58.63;25.40;;;12.70;99.90;;;;;;5119178;27;20043;-83
2022/03/26 09:01:28;;;;;;;57.63;25.88;;;12.70;99.90;;;;;;5137689;27;20453;-83
2022/03/26 09:03:54;;;;;;;59.28;25.70;;;13.70;99.90;;;;;;5119011;27;20046;-83
2022/03/26 09:06:20;;;;;;;58.75;25.42;;;12.80;99.90;;;;;;5119978;27;20390;-83
2022/03/26 09:08:46;;;;;;;62.30;27.50;;;13.40;99.90;;;;;;5137669;27;20031;-83
2022/03/26 09:11:11;;;;;;;56.80;25.77;;;13.70;99.90;;;;;;5136250;27;20054;-83
2022/03/26 09:13:37;;;;;;;57.38;25.48;;;13.60;99.90;;;;;;5124710;27;20180;-83
2022/03/26 09:16:03;;;;;;;56.08;25.23;;;13.10;99.90;;;;;;5105074;27;20500;-84
2022/03/26 09:18:29;;;;;;;54.85;25.48;;;13.00;99.90;;;;;;5101963;27;20031;-84
2022/03/26 09:20:54;;;;;;;55.33;25.90;;;13.80;99.90;;;;;;5119107;27;20166;-82
2022/03/26 09:23:21;;;;;;;54.58;25.73;;;13.40;99.90;;;;;;5118522;27;20389;-83
2022/03/26 09:25:46;;;;;;;56.03;25.52;;;13.20;99.90;;;;;;5118203;27;20043;-83
2022/03/26 09:28:12;;;;;;;53.15;24.58;;;14.00;99.90;;;;;;5118075;27;20084;-83
2022/03/26 09:30:37;;;;;;;54.67;24.45;;;13.60;99.90;;;;;;5100860;27;20120;-83
2022/03/26 09:33:04;;;;;;;53.88;24.85;;;14.60;99.90;;;;;;5100639;27;20051;-83
2022/03/26 09:35:29;;;;;;;55.38;26.80;;;14.40;99.90;;;;;;5136313;27;20370;-83
2022/03/26 09:37:55;;;;;;;64.47;26.90;;;14.50;99.90;;;;;;5117739;27;20050;-83
2022/03/26 09:40:22;;;;;;;61.50;26.63;;;14.90;99.90;;;;;;5117868;27;20050;-83
2022/03/26 09:42:49;;;;;;;52.55;25.15;;;14.10;99.90;;;;;;5101076;27;20043;-83
2022/03/26 09:45:16;;;;;;;44.67;21.55;;;14.40;99.90;;;;;;5101993;22;20510;-88
2022/03/26 09:47:41;;;;;;;44.95;21.50;;;14.80;99.90;;;;;;5073781;28;20048;-88
2022/03/26 09:50:08;;;;;;;43.03;20.35;;;15.20;99.90;;;;;;5084350;22;20505;-86
2022/03/26 09:52:35;;;;;;;43.50;19.75;;;14.30;99.90;;;;;;5076708;28;20048;-86
2022/03/26 09:55:02;;;;;;;37.47;17.80;;;14.60;99.90;;;;;;5094888;28;20642;-85
2022/03/26 09:57:29;;;;;;;41.15;20.85;;;14.70;99.90;;;;;;5094891;28;20048;-86
2022/03/26 09:59:56;;;;;;;38.45;20.10;;;14.90;99.90;;;;;;5076492;28;20129;-85
2022/03/26 10:02:22;;;;;;;45.75;21.73;;;14.60;99.90;;;;;;5076602;28;20048;-85
2022/03/26 10:04:47;;;;;;;45.03;22.77;;;14.70;99.90;;;;;;5093565;28;20492;-85
2022/03/26 10:07:13;;;;;;;46.65;23.35;;;15.00;99.90;;;;;;5095487;28;20124;-85
2022/03/26 10:09:41;;;;;;;43.30;23.63;;;14.50;99.90;;;;;;5095551;28;20036;-85
2022/03/26 10:12:11;;;;;;;42.85;23.30;;;15.30;99.90;;;;;;5094717;28;20119;-85
2022/03/26 10:15:04;;;;;;;47.47;24.80;;;15.00;99.90;;;;;;5076386;28;20097;-90
2022/03/26 10:17:35;;;;;;;47.63;24.45;;;15.20;99.90;;;;;;5076345;28;20056;-90
2022/03/26 10:20:13;;;;;;;44.25;22.95;;;16.00;99.90;;;;;;5059811;28;20093;-89
2022/03/26 10:22:44;;;;;;;41.90;21.63;;;15.30;99.90;;;;;;5076037;28;20044;-90
2022/03/26 10:25:21;;;;;;;45.45;23.95;;;16.00;99.90;;;;;;5076837;28;20050;-89
2022/03/26 10:27:57;;;;;;;48.78;23.02;;;15.40;99.90;;;;;;5098023;28;20040;-89
2022/03/26 10:33:30;;;;;;;42.75;22.73;;;15.50;99.90;;;;;;5076836;28;20343;-90
2022/03/26 10:36:00;;;;;;;40.83;21.20;;;15.30;99.90;;;;;;5094712;28;20036;-89
2022/03/26 10:38:33;;;;;;;35.28;19.77;;;16.20;99.90;;;;;;5076657;28;20123;-90
2022/03/26 10:41:00;;;;;;;35.28;19.00;;;16.00;99.90;;;;;;5076182;28;20059;-91
2022/03/26 10:43:27;;;;;;;33.78;19.88;;;15.40;99.90;;;;;;5094145;28;20408;-89
2022/03/26 10:45:55;;;;;;;31.17;18.13;;;16.80;99.90;;;;;;5076082;28;20381;-89
2022/03/26 10:48:32;;;;;;;31.25;18.58;;;16.50;99.90;;;;;;5075852;28;20044;-89
2022/03/26 10:51:06;;;;;;;33.97;18.88;;;16.20;99.90;;;;;;5076300;28;20059;-90
2022/03/26 10:53:43;;;;;;;32.70;18.55;;;16.40;99.90;;;;;;5053888;28;20064;-86
2022/03/26 10:56:13;;;;;;;30.48;17.35;;;16.30;99.90;;;;;;5063871;28;20048;-89
2022/03/26 10:58:40;;;;;;;25.20;16.40;;;16.40;99.90;;;;;;5074136;28;20094;-89
2022/03/26 11:01:06;;;;;;;26.58;15.95;;;16.80;99.90;;;;;;5072601;28;20075;-90
2022/03/26 11:03:34;;;;;;;28.05;17.75;;;17.00;99.90;;;;;;5093797;28;20382;-89
2022/03/26 11:06:00;;;;;;;29.45;17.35;;;17.10;99.90;;;;;;5080738;28;20512;-90
2022/03/26 11:08:32;;;;;;;27.80;17.63;;;17.20;99.90;;;;;;5063251;28;20119;-90
2022/03/26 11:11:01;;;;;;;24.77;15.40;;;17.10;99.90;;;;;;5073552;28;20051;-90
2022/03/26 11:13:28;;;;;;;23.35;14.93;;;17.20;99.90;;;;;;5073783;28;20466;-89
2022/03/26 11:16:09;;;;;;;24.88;15.20;;;17.20;99.90;;;;;;5055952;28;20046;-91
2022/03/26 11:18:59;;;;;;;24.80;14.10;;;16.80;99.90;;;;;;5073858;28;20051;-89
2022/03/26 11:21:27;;;;;;;20.60;12.45;;;17.20;99.90;;;;;;5077699;28;20041;-91
2022/03/26 11:24:27;;;;;;;20.88;12.43;;;17.00;99.90;;;;;;5061540;28;20102;-90
2022/03/26 11:27:14;;;;;;;21.08;12.80;;;17.00;99.90;;;;;;5064922;28;20047;-90
2022/03/26 11:30:05;;;;;;;20.10;12.52;;;17.10;99.90;;;;;;5062393;28;20044;-91
2022/03/26 11:32:37;;;;;;;19.95;13.27;;;17.40;99.90;;;;;;5080216;28;20041;-90
2022/03/26 11:35:09;;;;;;;16.83;11.23;;;17.30;99.90;;;;;;5077697;28;20133;-90
2022/03/26 11:37:34;;;;;;;17.23;11.13;;;17.40;99.90;;;;;;5059150;28;20048;-90
2022/03/26 11:40:00;;;;;;;13.18;8.85;;;17.80;99.90;;;;;;5077284;28;20040;-88
2022/03/26 11:42:33;;;;;;;13.07;8.60;;;17.60;99.90;;;;;;5077252;28;20052;-91
2022/03/26 11:51:19;;;;;;;11.40;7.40;;;18.40;99.90;;;;;;5058849;28;20049;-90
2022/03/26 11:53:48;;;;;;;13.75;7.32;;;17.70;99.90;;;;;;5059036;28;20102;-91
2022/03/26 11:56:26;;;;;;;12.48;8.10;;;18.00;99.90;;;;;;5058968;28;20045;-90
2022/03/26 11:59:07;;;;;;;12.23;7.60;;;18.80;99.90;;;;;;5077100;28;20056;-90
2022/03/26 12:01:38;;;;;;;10.77;7.60;;;18.00;99.90;;;;;;5059179;28;20044;-89
2022/03/26 12:04:24;;;;;;;12.02;7.47;;;18.20;99.90;;;;;;5077215;28;20124;-90
2022/03/26 12:06:56;;;;;;;12.40;7.00;;;18.10;99.90;;;;;;5058843;28;20033;-90
2022/03/26 12:09:32;;;;;;;12.20;6.97;;;18.60;99.90;;;;;;5042282;28;20059;-90
2022/03/26 12:12:04;;;;;;;12.98;7.30;;;18.50;99.90;;;;;;5059377;28;20041;-90
2022/03/26 12:14:30;;;;;;;11.13;6.88;;;18.70;99.90;;;;;;5059656;28;20048;-90
2022/03/26 12:16:56;;;;;;;10.55;6.90;;;18.70;99.90;;;;;;5059093;28;20049;-90
2022/03/26 12:19:48;;;;;;;10.23;6.25;;;18.60;99.90;;;;;;5076777;28;20045;-90
2022/03/26 12:22:21;;;;;;;10.43;6.85;;;18.60;99.90;;;;;;5076441;28;20048;-90
2022/03/26 12:24:48;;;;;;;11.45;6.82;;;18.50;99.90;;;;;;5041974;28;20053;-87
2022/03/26 12:27:14;;;;;;;11.00;6.32;;;18.60;99.90;;;;;;5058352;28;20124;-90
2022/03/26 12:29:40;;;;;;;10.95;6.68;;;19.20;99.90;;;;;;5076650;28;20043;-89
2022/03/26 12:32:06;;;;;;;10.23;6.25;;;18.90;99.90;;;;;;5076891;28;20479;-90
2022/03/26 12:34:32;;;;;;;13.60;7.43;;;18.80;99.90;;;;;;5077200;28;20115;-89
2022/03/26 12:37:02;;;;;;;11.20;6.32;;;18.70;99.90;;;;;;5058298;28;20567;-89
2022/03/26 12:39:29;;;;;;;9.75;6.70;;;18.80;99.90;;;;;;5085922;28;20041;-86